Humidity-temperature Sensor

Selected Measurement Type: Air Temperature

 
Air Temperature [°C]     6 entries per hour
Showing data from 3/31/2021 (00:00:00 Z) to 3/24/2021 (00:01:00 Z)
Previous Next [ Day | 3-Days | 7-Days ]
First Last
Prev [ Day | 3-Days | 7-Days ] Next
First Last

Start Time:     :
End Time:     :     
Time (in GMT) :00 :50 :40 :30 :20 :10
Previous Next [ Day | 3-Days | 7-Days ]
First Last
Prev [ Day | 3-Days | 7-Days ] Next
First Last


123 => good data
MM => data is determined as missing
-- => data not received/configured
Back to Top Back to Top
3/31/2021 00:00 to 23:10 26.70 26.72 26.66 26.73 26.62 26.61
3/30/2021 23:00 to 22:10 26.65 26.54 26.54 26.52 26.46 26.52
3/30/2021 22:00 to 21:10 26.46 26.56 26.54 26.55 26.53 26.48
3/30/2021 21:00 to 20:10 26.55 26.46 26.47 26.44 26.48 26.40
3/30/2021 20:00 to 19:10 26.40 26.32 26.28 26.26 26.16 26.27
3/30/2021 19:00 to 18:10 26.31 26.36 26.35 26.39 26.33 26.38
3/30/2021 18:00 to 17:10 26.33 26.30 26.28 26.27 26.25 26.17
3/30/2021 17:00 to 16:10 26.12 25.99 25.97 26.03 26.04 25.79
3/30/2021 16:00 to 15:10 25.40 25.13 24.66 25.23 25.94 25.96
3/30/2021 15:00 to 14:10 25.92 26.00 25.89 25.85 25.87 25.87
3/30/2021 14:00 to 13:10 -- -- -- -- -- --
3/30/2021 13:00 to 12:10 25.93 25.92 25.96 26.00 25.90 25.97
3/30/2021 12:00 to 11:10 -- -- -- -- -- --
3/30/2021 11:00 to 10:10 26.04 26.05 26.01 26.00 25.97 25.94
3/30/2021 10:00 to 9:10 -- -- -- -- -- --
3/30/2021 09:00 to 8:10 -- -- -- -- -- --
3/30/2021 08:00 to 7:10 -- -- -- -- -- --
3/30/2021 07:00 to 6:10 -- -- -- -- -- --
3/30/2021 06:00 to 5:10 -- -- -- -- -- --
3/30/2021 05:00 to 4:10 -- -- -- -- -- --
3/30/2021 04:00 to 3:10 26.24 26.13 26.05 26.05 26.08 26.05
3/30/2021 03:00 to 2:10 26.03 26.02 26.01 25.98 25.97 25.99
3/30/2021 02:00 to 1:10 26.10 26.18 26.18 26.15 26.18 26.14
3/30/2021 01:00 to 0:10 26.17 26.19 26.20 26.37 26.31 26.44
3/30/2021 00:00 to 23:10 26.35 26.28 26.27 26.33 26.26 26.29
3/29/2021 23:00 to 22:10 26.22 26.22 26.26 26.21 26.24 26.14
3/29/2021 22:00 to 21:10 26.09 26.06 26.08 26.02 26.11 26.07
3/29/2021 21:00 to 20:10 26.05 26.08 26.08 26.06 26.04 26.06
3/29/2021 20:00 to 19:10 25.98 25.99 26.05 26.05 26.04 26.00
3/29/2021 19:00 to 18:10 25.99 26.02 26.07 26.09 26.05 26.03
3/29/2021 18:00 to 17:10 -- -- -- -- -- --
3/29/2021 17:00 to 16:10 -- -- -- -- -- --
3/29/2021 16:00 to 15:10 -- -- -- -- -- --
3/29/2021 15:00 to 14:10 -- -- -- -- -- --
3/29/2021 14:00 to 13:10 -- -- -- -- -- --
3/29/2021 13:00 to 12:10 -- -- -- -- -- --
3/29/2021 12:00 to 11:10 25.64 25.74 25.68 25.58 25.62 25.60
3/29/2021 11:00 to 10:10 25.67 25.65 25.59 25.67 25.67 25.68
3/29/2021 10:00 to 9:10 25.68 25.69 25.76 25.73 25.72 25.72
3/29/2021 09:00 to 8:10 25.74 25.73 25.76 25.75 25.81 25.84
3/29/2021 08:00 to 7:10 25.84 25.87 25.93 25.93 25.97 25.96
3/29/2021 07:00 to 6:10 26.02 26.00 26.02 26.04 26.06 26.11
3/29/2021 06:00 to 5:10 26.12 26.19 26.18 26.15 26.20 26.19
3/29/2021 05:00 to 4:10 26.20 26.11 26.16 26.20 26.18 26.18
3/29/2021 04:00 to 3:10 26.19 26.22 26.19 26.18 26.16 26.17
3/29/2021 03:00 to 2:10 26.19 26.08 26.04 26.06 26.09 26.10
3/29/2021 02:00 to 1:10 26.23 26.29 26.33 26.22 26.22 26.23
3/29/2021 01:00 to 0:10 26.24 26.39 26.38 26.40 26.41 26.39
3/29/2021 00:00 to 23:10 26.39 26.32 26.39 26.28 26.26 26.33
3/28/2021 23:00 to 22:10 26.20 26.14 26.11 26.06 26.09 26.04
3/28/2021 22:00 to 21:10 25.99 26.03 26.02 26.03 26.00 26.03
3/28/2021 21:00 to 20:10 26.02 26.00 26.02 25.96 26.00 25.98
3/28/2021 20:00 to 19:10 25.96 25.93 25.98 26.01 26.04 25.98
3/28/2021 19:00 to 18:10 26.00 26.04 26.06 26.04 26.01 26.03
3/28/2021 18:00 to 17:10 26.01 26.00 25.96 26.03 26.02 26.06
3/28/2021 17:00 to 16:10 26.10 25.95 25.91 25.95 25.90 25.96
3/28/2021 16:00 to 15:10 25.88 25.87 25.99 25.89 25.94 25.92
3/28/2021 15:00 to 14:10 25.80 25.74 25.70 25.64 25.61 25.59
3/28/2021 14:00 to 13:10 25.61 25.60 25.61 25.69 25.65 25.62
3/28/2021 13:00 to 12:10 25.65 25.64 25.60 25.64 25.70 25.68
3/28/2021 12:00 to 11:10 25.70 25.68 25.66 25.64 25.97 25.93
3/28/2021 11:00 to 10:10 25.96 26.02 26.00 26.02 26.11 26.09
3/28/2021 10:00 to 9:10 26.14 26.16 26.24 26.18 26.21 26.26
3/28/2021 09:00 to 8:10 26.23 26.26 26.25 26.34 26.25 26.37
3/28/2021 08:00 to 7:10 26.39 26.37 26.40 26.33 26.35 26.36
3/28/2021 07:00 to 6:10 26.34 26.37 26.32 26.30 26.33 26.36
3/28/2021 06:00 to 5:10 26.40 26.37 26.44 26.42 26.43 26.48
3/28/2021 05:00 to 4:10 26.50 26.48 26.50 26.50 26.48 26.46
3/28/2021 04:00 to 3:10 26.50 26.48 26.51 26.49 26.48 26.42
3/28/2021 03:00 to 2:10 26.30 26.28 26.37 26.35 26.35 26.40
3/28/2021 02:00 to 1:10 26.36 26.35 26.39 26.47 26.53 26.71
3/28/2021 01:00 to 0:10 26.58 26.75 26.73 26.62 26.47 26.49
3/28/2021 00:00 to 23:10 26.65 26.59 26.57 26.42 26.41 26.51
3/27/2021 23:00 to 22:10 26.52 26.43 26.48 26.46 26.46 26.42
3/27/2021 22:00 to 21:10 26.43 26.39 26.40 26.36 26.37 26.37
3/27/2021 21:00 to 20:10 26.40 26.46 26.44 26.43 26.41 26.41
3/27/2021 20:00 to 19:10 26.37 26.40 26.38 26.37 26.37 26.36
3/27/2021 19:00 to 18:10 26.34 26.31 26.40 26.42 26.39 26.35
3/27/2021 18:00 to 17:10 26.32 26.33 26.34 26.41 26.36 26.38
3/27/2021 17:00 to 16:10 26.33 26.42 26.25 26.34 26.25 26.16
3/27/2021 16:00 to 15:10 26.08 26.08 25.94 25.94 26.01 25.95
3/27/2021 15:00 to 14:10 25.83 25.88 25.85 25.73 25.74 25.77
3/27/2021 14:00 to 13:10 25.71 25.68 25.69 25.64 25.57 25.53
3/27/2021 13:00 to 12:10 25.79 25.68 25.70 25.67 25.65 25.62
3/27/2021 12:00 to 11:10 25.62 25.61 25.61 25.65 25.70 25.66
3/27/2021 11:00 to 10:10 25.65 25.64 25.67 25.67 25.73 25.76
3/27/2021 10:00 to 9:10 25.74 25.77 25.80 25.79 25.83 25.81
3/27/2021 09:00 to 8:10 25.79 25.78 25.95 26.01 25.98 25.96
3/27/2021 08:00 to 7:10 25.95 25.99 26.00 26.02 26.03 26.02
3/27/2021 07:00 to 6:10 26.07 26.07 26.03 26.09 26.11 26.11
3/27/2021 06:00 to 5:10 26.16 26.13 26.22 26.13 26.14 26.15
3/27/2021 05:00 to 4:10 26.18 26.21 26.21 26.18 26.08 26.14
3/27/2021 04:00 to 3:10 26.06 26.05 26.04 26.05 26.08 26.04
3/27/2021 03:00 to 2:10 26.06 26.00 25.99 26.03 26.04 26.02
3/27/2021 02:00 to 1:10 26.03 26.07 26.12 26.13 26.23 26.08
3/27/2021 01:00 to 0:10 26.08 26.13 26.21 26.17 26.23 26.11
3/27/2021 00:00 to 23:10 26.12 26.06 26.10 26.08 26.03 26.07
3/26/2021 23:00 to 22:10 26.11 26.08 26.11 25.99 25.99 25.97
3/26/2021 22:00 to 21:10 25.93 25.93 25.92 25.95 25.93 25.93
3/26/2021 21:00 to 20:10 25.95 25.91 25.93 25.90 25.88 25.89
3/26/2021 20:00 to 19:10 25.87 25.88 25.88 25.93 25.88 25.91
3/26/2021 19:00 to 18:10 25.92 25.89 25.84 25.86 25.81 25.83
3/26/2021 18:00 to 17:10 25.79 25.85 25.78 25.90 25.85 25.89
3/26/2021 17:00 to 16:10 25.81 25.87 25.92 25.87 25.98 25.99
3/26/2021 16:00 to 15:10 26.02 26.08 26.11 25.93 25.97 25.93
3/26/2021 15:00 to 14:10 25.84 25.87 25.80 25.73 25.58 25.61
3/26/2021 14:00 to 13:10 25.56 25.71 25.73 25.68 25.72 25.71
3/26/2021 13:00 to 12:10 25.70 25.70 25.73 25.73 25.70 25.72
3/26/2021 12:00 to 11:10 25.74 25.75 25.71 25.73 25.73 25.76
3/26/2021 11:00 to 10:10 25.80 25.79 25.77 25.75 25.78 25.79
3/26/2021 10:00 to 9:10 25.78 25.79 25.83 25.82 25.85 25.87
3/26/2021 09:00 to 8:10 25.89 25.87 25.88 25.95 25.97 25.97
3/26/2021 08:00 to 7:10 25.98 26.01 26.03 26.03 26.01 26.03
3/26/2021 07:00 to 6:10 26.06 26.03 26.08 26.06 26.09 26.07
3/26/2021 06:00 to 5:10 26.03 26.07 26.07 26.05 26.06 26.08
3/26/2021 05:00 to 4:10 26.13 26.12 26.17 26.14 26.18 26.21
3/26/2021 04:00 to 3:10 26.09 26.11 26.12 26.12 26.17 26.20
3/26/2021 03:00 to 2:10 26.18 26.22 26.23 26.24 26.29 26.36
3/26/2021 02:00 to 1:10 26.51 26.54 26.58 26.59 26.23 26.61
3/26/2021 01:00 to 0:10 26.70 26.66 26.59 26.57 26.53 26.46
3/26/2021 00:00 to 23:10 26.48 26.45 26.32 26.41 26.40 26.36
3/25/2021 23:00 to 22:10 26.39 26.35 26.41 26.40 26.35 26.29
3/25/2021 22:00 to 21:10 26.30 26.34 26.33 26.30 26.26 26.27
3/25/2021 21:00 to 20:10 26.30 26.20 26.22 26.32 26.28 26.26
3/25/2021 20:00 to 19:10 26.25 26.18 26.27 26.23 26.26 26.28
3/25/2021 19:00 to 18:10 26.34 26.24 26.24 26.24 26.20 26.18
3/25/2021 18:00 to 17:10 26.27 26.26 26.23 26.28 26.26 26.25
3/25/2021 17:00 to 16:10 26.28 26.38 26.17 26.42 26.38 26.31
3/25/2021 16:00 to 15:10 26.25 26.17 26.25 26.27 26.20 26.27
3/25/2021 15:00 to 14:10 26.26 26.15 26.10 26.10 26.08 26.09
3/25/2021 14:00 to 13:10 26.08 26.08 26.08 26.13 26.10 26.14
3/25/2021 13:00 to 12:10 26.11 26.11 26.10 26.14 26.16 26.10
3/25/2021 12:00 to 11:10 26.17 26.16 26.12 26.07 26.14 26.10
3/25/2021 11:00 to 10:10 26.11 26.21 26.22 26.20 26.24 26.21
3/25/2021 10:00 to 9:10 26.27 26.23 26.22 26.27 26.25 26.26
3/25/2021 09:00 to 8:10 26.31 26.40 26.39 26.42 26.41 26.43
3/25/2021 08:00 to 7:10 26.45 26.48 26.49 26.44 26.50 26.50
3/25/2021 07:00 to 6:10 26.49 26.51 26.55 26.56 26.58 26.59
3/25/2021 06:00 to 5:10 26.58 26.60 26.59 26.60 26.66 26.67
3/25/2021 05:00 to 4:10 26.66 26.64 26.69 26.70 26.71 26.71
3/25/2021 04:00 to 3:10 26.67 26.69 26.68 26.71 26.71 26.71
3/25/2021 03:00 to 2:10 26.72 26.75 26.75 26.70 26.74 26.88
3/25/2021 02:00 to 1:10 27.08 27.10 26.80 27.22 27.14 27.25
3/25/2021 01:00 to 0:10 27.40 27.19 27.30 27.29 27.38 27.29
3/25/2021 00:00 to 23:10 27.21 27.19 27.16 27.10 27.19 27.09
3/24/2021 23:00 to 22:10 27.03 26.99 26.98 26.96 26.93 26.93
3/24/2021 22:00 to 21:10 26.91 26.96 26.93 27.00 26.94 26.93
3/24/2021 21:00 to 20:10 26.98 26.73 26.88 27.02 27.05 27.02
3/24/2021 20:00 to 19:10 26.98 27.06 27.01 27.02 27.01 27.06
3/24/2021 19:00 to 18:10 26.98 27.00 26.99 26.96 27.00 26.90
3/24/2021 18:00 to 17:10 26.95 26.89 26.79 26.80 26.78 26.85
3/24/2021 17:00 to 16:10 26.86 26.76 26.88 26.88 26.87 26.84
3/24/2021 16:00 to 15:10 26.81 26.80 26.79 26.79 26.81 26.69
3/24/2021 15:00 to 14:10 26.62 26.52 26.35 26.36 26.38 26.35
3/24/2021 14:00 to 13:10 26.27 26.30 26.29 26.29 26.31 26.29
3/24/2021 13:00 to 12:10 26.22 26.19 26.20 26.26 26.26 26.28
3/24/2021 12:00 to 11:10 26.29 26.29 26.30 26.27 26.39 26.33
3/24/2021 11:00 to 10:10 26.33 26.35 26.39 26.39 26.38 26.38
3/24/2021 10:00 to 9:10 26.36 26.38 26.42 26.45 26.42 26.42
3/24/2021 09:00 to 8:10 26.48 26.48 26.54 26.60 26.60 26.59
3/24/2021 08:00 to 7:10 26.64 26.68 26.68 26.70 26.69 26.70
3/24/2021 07:00 to 6:10 26.80 26.78 26.83 26.83 26.89 26.85
3/24/2021 06:00 to 5:10 26.87 26.86 26.84 26.89 26.80 26.82
3/24/2021 05:00 to 4:10 26.89 26.90 26.88 26.90 26.90 26.85
3/24/2021 04:00 to 3:10 26.83 26.81 26.82 26.81 26.82 26.84
3/24/2021 03:00 to 2:10 26.81 26.87 26.84 26.81 26.86 26.85
3/24/2021 02:00 to 1:10 26.89 26.89 27.12 27.09 26.88 26.95
3/24/2021 01:00 to 0:10 27.11 27.04 27.12 27.03 26.90 27.00